events-overview

Kinetic Sprint

 

Overall

Lake Anna State Park - Spotsylvania, VA 5/11/2014 09:00AM

** Results are for the private use of participants and are the Intellectual Property of Set Up Events. Unauthorized use of these results is prohibited.

Place Bib Co Ag S NAME city/state Rank SWIM Rank T1 Rank Bike Rank T2 Rank RUN PENALTY TIME DQ
151 23MBobby StanleyBerryville VA2100:10:52400:01:23100:37:52100:00:35100:17:53 01:08:33 
2169 25MBrady ThomasVirginia Beach VA1600:10:37500:01:32200:37:53500:00:39700:19:06 01:09:45 
3233 37MJohn ChambersWashington DC2000:10:52900:01:37300:38:37900:00:43200:18:03 01:09:48 
4123 47MStephen EidAshburn VA200:09:163900:01:56700:40:32200:00:371700:20:26 01:12:45 
533 39MShaun NicholsChester VA1700:10:391700:01:43400:38:521200:00:452900:21:10 01:13:07 
6435 43MLee BoyerAlexandria VA2600:11:04800:01:36600:39:277200:01:011500:20:13 01:13:19 
7430 45MSean PierceAlexandria VA4500:11:445200:02:01500:39:124700:00:561300:20:02 01:13:54 
873 34MJoey HessWoodbridge VA800:10:024900:01:593200:42:523000:00:53300:18:31 01:14:15 
9285 28MMatthew PughChesterfield VA6700:12:111000:01:381100:41:05300:00:39500:19:05 01:14:35 
10449 42FHeather WestermanLigonier PA100:09:082200:01:48800:40:405400:00:586800:22:19 01:14:52 
11305 27MCharles KreuzbergerNorfolk VA3600:11:28700:01:361200:41:061600:00:491600:20:23 01:15:20 
1288 38MAdam StolzbergArlington VA15700:13:204200:01:58900:40:444300:00:55800:19:22 01:16:17 
13249 54MGreg NelsonOlney MD2400:10:5610700:02:211500:41:2713500:01:091800:20:27 01:16:19 
14555 28MCorey MillerAlexandria VA3300:11:213200:01:513000:42:445800:00:58900:19:37 01:16:30 
15533 29FLiz WhiteleyWashington DC1300:10:341200:01:392800:42:431000:00:443200:21:18 01:16:56 
16508 32MBarry McCarronWashington DC16700:13:25300:01:212400:42:202400:00:52600:19:06 01:17:02 
17455 27MKevin MallonSpringfield VA1100:10:28600:01:343300:42:547800:01:013900:21:32 01:17:28 
18279 30MPeter McGuireBethesda MD9100:12:311100:01:391300:41:0715100:01:123100:21:18 01:17:45 
19191 30MRyan WernerWashington DC5400:12:002700:01:494200:43:223700:00:541100:20:01 01:18:03 
20431 39MMichael SkeeleArlington VA600:09:546300:02:072200:42:1214000:01:108400:22:52 01:18:14 
21221 46MBill DeatonRuckersville VA5900:12:041300:01:391000:41:002200:00:518500:22:56 01:18:28 
22355 29MSean FishWashington DC3900:11:3410200:02:206100:44:326600:01:001200:20:02 01:19:25 
23210 32FDina SulymaPotomac Falls VA19700:13:463800:01:551400:41:131700:00:495400:21:54 01:19:35 
24414 27MJoe KrasinskasVienna VA4800:11:481600:01:415100:43:5612800:01:083000:21:13 01:19:45 
25388 32MSteve FirkserCherry Hill NJ5800:12:041400:01:406000:44:261400:00:472700:21:03 01:19:58 
26460 31MAndrew CallihanRichmond VA23300:14:192900:01:501800:41:484200:00:553700:21:30 01:20:20 
27264 34MJose RamosArlington VA15600:13:2020000:02:502700:42:4011800:01:072000:20:30 01:20:25 
28155 31MDenis MoffettAlexandria VA16200:13:242400:01:482600:42:362000:00:515500:21:54 01:20:32 
29259 49MKevin HickeyVirginia Beach VA15100:13:192100:01:482000:41:5611400:01:067200:22:24 01:20:32 
30170 38MMonte LewisMontgomery Village MD11200:12:484000:01:563700:42:598000:01:025600:21:55 01:20:38 
PlaceBibCoAgSNAMEcity/stateRankSWIMRankT1RankBikeRankT2RankRUNPENALTYTIMEDQ
31611C29MRyan SilerArlington VA9700:12:398800:02:164400:43:263100:00:534100:21:32 01:20:44 
32222 36FKristine WootenReston VA9400:12:354300:01:583800:43:044600:00:566600:22:18 01:20:48 
3382 51MEric MackemReston VA7700:12:226600:02:093500:42:5510500:01:057400:22:30 01:21:00 
34316 39FMandy LovettAllentown PA2300:10:544500:01:583900:43:052300:00:5114400:24:24 01:21:10 
35260 30FLauren LipseyWashington DC2900:11:161900:01:4510000:46:071300:00:463300:21:19 01:21:11 
36514 18MJake KendrickManassas VA2200:10:535100:02:009600:46:0214200:01:103800:21:32 01:21:36 
37196 37MAndrew JonesArlington VA20100:13:5010300:02:201700:41:4810300:01:057700:22:38 01:21:38 
38190 24MKempsey ClarkRockville MD2700:11:082300:01:489400:46:0123400:01:223500:21:27 01:21:44 
39391 26FAshley KearcherMorgantown WV8900:12:317500:02:128300:45:315900:00:592300:20:45 01:21:55 
40209 55MAlan DixonWashington DC11900:12:508600:02:152300:42:143400:00:5412500:24:03 01:22:15 
4185 28MJohn ClossArlington VA1000:10:2015200:02:346700:44:516300:00:5910700:23:36 01:22:20 
42114 45MDouglas DudgeonStafford VA1200:10:2910600:02:215200:43:5713900:01:0914900:24:29 01:22:24 
43526 29MGregory WingWashington DC13200:13:055500:02:023100:42:4517900:01:159800:23:22 01:22:26 
44520 33FMacKenzie YatesWashington DC11000:12:454100:01:574800:43:446200:00:599000:23:05 01:22:29 
45187 60MThomas StroupGreat Falls VA5300:12:003000:01:514900:43:473900:00:5412300:24:00 01:22:31 
46158 18FLaura SullivanVienna VA300:09:364800:01:5917800:48:342500:00:524000:21:32 01:22:32 
47267 44MDarren BeilsteinWilliamsburg VA8400:12:286500:02:094000:43:119100:01:0311100:23:42 01:22:32 
4842 48MDaniel AndersonRockville MD3800:11:3128500:03:145600:44:1526300:01:276500:22:16 01:22:42 
49324 24MMax LanderWashington DC8300:12:2717700:02:4314700:47:4713100:01:09400:18:39 01:22:42 
50284 50MChristopher VaughanWashington DC2500:10:587100:02:106200:44:3210800:01:0512600:24:04 01:22:47 
51536 40MJames DillonMidlothian VA7200:12:168900:02:165900:44:232700:00:529100:23:05 01:22:50 
52143 32MSteven VadnaisArlington VA20500:13:523300:01:526300:44:33600:00:395700:21:57 01:22:51 
535MM32MAndrew MorganLorton VA33800:15:3611200:02:222100:42:1216000:01:134800:21:35 01:22:56 
547 58MGreg GuintherRichmond VA7100:12:154600:01:583600:42:564800:00:5616500:24:54 01:22:57 
55131 26MZach BirnbaumViena VA4700:11:485800:02:034100:43:155300:00:5717400:25:15 01:23:16 
5670 47MThom MukriWoodbridge VA24100:14:255900:02:034600:43:353300:00:537100:22:22 01:23:16 
5765 28MJohnathan SteinArlington VA17700:13:325400:02:017900:45:138400:01:024200:21:33 01:23:20 
58376 24MMiles BloomArlington VA1900:10:5120300:02:5113100:47:1118600:01:153400:21:26 01:23:32 
59443 61MStephen GodwinBethesda MD6900:12:1125500:03:054500:43:3425000:01:249700:23:22 01:23:34 
60468 51MStephen O'DonnellWashington DC14300:13:1313600:02:295500:44:0427400:01:297300:22:28 01:23:42 
61504 30MEvin WickWashington DC17000:13:284700:01:598900:45:416700:01:006400:22:15 01:24:20 
PlaceBibCoAgSNAMEcity/stateRankSWIMRankT1RankBikeRankT2RankRUNPENALTYTIMEDQ
6299 42MJeff WebbArlington VA9500:12:367200:02:115400:44:0113800:01:0914800:24:29 01:24:24 
63307 35MEric KlintbergArlington VA10100:12:418700:02:155800:44:2233000:01:3810300:23:31 01:24:25 
64428 37FKathy LettFalls Church VA12300:12:549200:02:176600:44:474000:00:5410800:23:37 01:24:28 
65107 43FSusan WinkloskyAshburn VA11800:12:5013500:02:295700:44:215600:00:5811900:23:53 01:24:29 
66185 26MKurt GibelCentreville VA5600:12:001500:01:411600:41:381800:00:5033500:28:29 01:24:36 
674MM38MAaron ShulerAlexandria VA19300:13:4316400:02:396800:44:5212400:01:086700:22:18 01:24:38 
68531 50MLowell GouldRocky Point NC6600:12:11200:01:157000:44:58400:00:3921600:25:57 01:24:57 
6934 35MMansur MendizabalWashington DC20200:13:5151900:04:592900:42:4440600:01:534600:21:34 01:24:59 
70359 42MChad RicknerChesapeake VA17600:13:325000:01:5910300:46:088300:01:026900:22:21 01:25:01 
7135 33MTimothy OrrChantilly VA25300:14:333100:01:519200:45:4915600:01:124900:21:40 01:25:04 
72172 47MBen HaleSterling VA11400:12:4928000:03:133400:42:5538500:01:4815100:24:30 01:25:12 
73379 28MRob HallidayArlington VA3400:11:219800:02:1821100:49:3217000:01:142500:20:56 01:25:19 
74342 37MArnel AlverioHaymarket VA8800:12:3013400:02:298100:45:2322900:01:2111000:23:41 01:25:23 
75275 31FKara YeaterAlexandria VA2800:11:1215700:02:3713800:47:2216900:01:148900:23:05 01:25:28 
76426 34MChristopher CatalanoArlington VA19100:13:422800:01:496500:44:4115800:01:1312900:24:07 01:25:30 
77551 47MCharles KendallOak Hill VA10500:12:438500:02:147800:45:126400:00:5914600:24:26 01:25:33 
7810MM27MLukas VucskoChesapeake VA20800:13:547400:02:128400:45:3218400:01:158000:22:44 01:25:35 
79456 43MScott McLallenLorton VA400:09:4230300:03:1915000:47:505100:00:5611800:23:53 01:25:38 
80216 35MBrandon CogswellArlington VA18300:13:3514900:02:342500:42:3626700:01:2820100:25:34 01:25:43 
81670 33FJen SykesAlexandria VA3500:11:238100:02:136900:44:5412300:01:0822600:26:08 01:25:45 
82219 30MBenjamin RichardsArlington VA6500:12:0817100:02:417600:45:1029200:01:3213800:24:16 01:25:46 
83583 49MTodd PedersonCorapeake NC15000:13:199500:02:184700:43:4210400:01:0519700:25:30 01:25:51 
84301 46MAndrew McCabeAshburn VA23800:14:2346400:04:175000:43:4938800:01:495100:21:44 01:26:00 
85201 40MJames NosalAshbyrn VA10000:12:4015300:02:349800:46:0428800:01:319500:23:18 01:26:06 
86518 37MGarth KaliczakSuitland MD5700:12:0423100:02:595300:44:0129600:01:3320200:25:37 01:26:12 
873MM28MDavid ColmanArlington VA25100:14:3321000:02:5215400:47:554100:00:551000:19:59 01:26:12 
88179 44MJeffrey HorwitzArlington VA14100:13:123600:01:5412500:47:0319200:01:168300:22:49 01:26:13 
89106 36FFlorence LamirandJeffersonton VA20400:13:517600:02:1213300:47:166000:00:595800:21:58 01:26:15 
90705NM41MMichael KainuFredericksburg VA8600:12:3020700:02:5215100:47:5032700:01:384400:21:33 01:26:22 
91295 51FKatherine McKnightFairfax VA13400:13:0510800:02:2111100:46:317500:01:0110400:23:31 01:26:28 
92310 25MMichael DuncansonVienna VA38400:16:2216000:02:387500:45:0826000:01:272800:21:06 01:26:39 
PlaceBibCoAgSNAMEcity/stateRankSWIMRankT1RankBikeRankT2RankRUNPENALTYTIMEDQ
93481 39MCharles ShedrickWashington DC18700:13:383500:01:5410700:46:223600:00:5413400:24:13 01:26:58 
94420 33MRyan TrollWashington DC34200:15:466100:02:058500:45:375000:00:567800:22:39 01:27:01 
9594 56MJames JeremiahFairfax VA11300:12:485600:02:0215900:48:0119500:01:168600:22:57 01:27:03 
96502 47MBob LytleHerndon VA26400:14:3822000:02:567700:45:1011500:01:069400:23:16 01:27:05 
97164 47MTodd MackertManassas VA27300:14:4527900:03:126400:44:4030100:01:348700:22:58 01:27:06 
98258 53MJoel IselyPoquoson VA5100:11:5512000:02:258700:45:4018300:01:1521900:26:02 01:27:14 
99390 32FJune FirkserCherry Hill NJ18800:13:387000:02:109300:45:559200:01:0315200:24:32 01:27:17 
100132 29MJohn MileyFalls Church VA12900:13:0326800:03:0917500:48:319300:01:044300:21:33 01:27:18 
101524 51MDavid CadieuxChesapeake VA4400:11:4320100:02:519500:46:0136900:01:4516800:25:05 01:27:24 
102362 26MDarin StiefvaterGlen Allen VA12600:13:011800:01:4423300:50:202100:00:514700:21:34 01:27:27 
103311 41MNicholas HillTakoma Park MD31000:15:138400:02:1413500:47:1813000:01:095000:21:44 01:27:36 
104570 36MBrandon SmithRichmond VA11600:12:5010900:02:228800:45:4127600:01:3018500:25:23 01:27:42 
105576 30FErin CollierWashington DC19000:13:417300:02:118600:45:398500:01:0218100:25:17 01:27:49 
106117 46MJames RosenRichmond VA7500:12:2025200:03:0420200:49:1312900:01:096300:22:09 01:27:53 
10757 46MDave KayeaAnnapolis MD7000:12:1212900:02:2812700:47:0529300:01:3215600:24:41 01:27:56 
108208 52MGreg TuckMechanicsville VA20700:13:5311900:02:2417100:48:2416400:01:146100:22:05 01:27:57 
109436 44MBrian KennedyBurke VA17200:13:3014100:02:317300:45:0431000:01:3619600:25:30 01:28:08 
11025 31MLing ChenCentreville VA23100:14:189400:02:187100:45:0222400:01:2117500:25:15 01:28:12 
111363 22MJeremy PalmerCollege Park MD25600:14:3530100:03:1818000:48:3815900:01:132100:20:33 01:28:15 
112707NM29MDan ClarkWashington DC21300:13:5912700:02:2714500:47:46     01:28:21 
113588 31FHolly TompkinsArlington VA13100:13:056700:02:099700:46:0415700:01:1221300:25:54 01:28:23 
114589 40MMartin OakhillVienna VA7800:12:2345500:04:1311200:46:378800:01:0313100:24:09 01:28:23 
115730 46MCharles BarnesVienna VA27100:14:4346900:04:2110800:46:265700:00:586000:22:02 01:28:27 
116297 45MTerry ThorntonGlen Allen VA16400:13:252600:01:4911900:46:5112500:01:0818200:25:21 01:28:32 
117485 25FBridget StichnotCharlottesville VA18100:13:3428200:03:1325100:50:484900:00:561400:20:07 01:28:36 
118168 39MGeoff SinclairBurke VA700:10:0014600:02:3312900:47:0946200:02:0725800:26:57 01:28:44 
119113 37FGretchen CullenbergArlington VA16300:13:257800:02:1310200:46:0820600:01:1820700:25:45 01:28:47 
120427 29MKevin BushWashington DC22100:14:0315600:02:3710100:46:0819700:01:178100:22:4400:02:0001:28:47 
121413 24MKyle BlackwellPaoli PA3700:11:3019600:02:5014300:47:3624100:01:2320500:25:43 01:29:00 
122516 48FJennifer RentchWashington DC11700:12:506400:02:0811300:46:3819800:01:1723000:26:12 01:29:03 
123593 29MBrian RocheArlington VA33600:15:3440900:03:554300:43:2420200:01:178800:22:5800:02:0001:29:06 
PlaceBibCoAgSNAMEcity/stateRankSWIMRankT1RankBikeRankT2RankRUNPENALTYTIMEDQ
1248MM38MMatthew JemmottArlington VA27200:14:4418700:02:4613400:47:1610900:01:0610000:23:26 01:29:16 
125591 34FErin GreenWilmington NC8500:12:2811400:02:2314600:47:4615000:01:1219100:25:28 01:29:16 
126122 28FKate TusseyFalls Church VA18400:13:3512200:02:2518200:48:404400:00:5511400:23:48 01:29:21 
12732 39MJoe MoralesSouth Riding VA22600:14:1014400:02:3210500:46:2011100:01:0617300:25:14 01:29:21 
128532 47FStephenie WinterWrightsville Beach NC17800:13:338000:02:1312100:46:5224000:01:2318900:25:26 01:29:25 
129372 49MWilliam PriorFairfax Station VA14600:13:1426000:03:0610400:46:1526100:01:2719800:25:31 01:29:31 
130288 23MMatthew BohmkeFredericksburg VA19600:13:4524200:03:0225400:50:538200:01:022400:20:55 01:29:35 
131580 49MDavid ZemoCulpeper VA19800:13:4615900:02:388000:45:168100:01:0226300:26:59 01:29:40 
132618MC52MMichael MowlesEl Paso TX3200:11:2010100:02:2015700:47:597700:01:0126700:27:04 01:29:42 
133442 34FJaclyn RiebenLeesburg VA1800:10:4026200:03:0725900:50:5717700:01:1411200:23:45 01:29:43 
134590 30FJulia HoppockWashington DC9600:12:377700:02:1316700:48:1429700:01:3316900:25:09 01:29:43 
135361 52FShannon BarrasCharlottesville VA34500:15:5122500:02:579100:45:4810100:01:0512800:24:07 01:29:45 
136140 32MMatt GreytakHerndon VA19400:13:4431900:03:2415200:47:5314100:01:1010900:23:38 01:29:48 
13786 60MCharlie WatkinsNorfolk VA3100:11:2027200:03:1014400:47:4432300:01:3821800:26:00 01:29:50 
13820 43MMark LindsayHigh Point NC20900:13:5520600:02:5217000:48:2123500:01:2210100:23:26 01:29:54 
139344 30MJonathan ScanlonArlington VA32000:15:2031400:03:2216200:48:0513200:01:096200:22:06 01:30:00 
140566 32MAllen WuFairfax VA14900:13:1836500:03:4115300:47:5320500:01:1812400:24:02 01:30:10 
14187 35MJustin JacobsThe Plains VA14400:13:1423500:03:0013700:47:2034100:01:4016600:25:00 01:30:12 
142223 49MAaron GoldFalls Church VA1400:10:3530900:03:2023400:50:2018700:01:1616000:24:44 01:30:12 
143358 36FMargaret GrayHerndon VA22700:14:1111300:02:2318700:48:557900:01:0111300:23:47 01:30:16 
14472 42FPauline OwenKing George VA9200:12:329000:02:1613000:47:1018500:01:1526600:27:04 01:30:16 
145592 55MDwight WolfNewport News VA500:09:428200:02:1311600:46:4538400:01:4738800:29:50 01:30:17 
146534 45MMarty DejosephWilmington NC13300:13:0518200:02:4421800:49:4623800:01:229900:23:23 01:30:19 
147601C37MElliott LaneWashington DC12200:12:525300:02:017400:45:054500:00:5537700:29:30 01:30:21 
148354 34MAaron KotaSpotsylvania VA29800:15:0217500:02:4219000:48:569900:01:047900:22:40 01:30:23 
149156 33FJulie GunzenhaeuserArlington VA5200:11:599700:02:1811800:46:4824900:01:2430600:27:57 01:30:24 
150393 27FJulie BrownArlington VA9900:12:4012800:02:2720300:49:1428500:01:3115400:24:37 01:30:27 
151544 45MBob KellerWilliamsburg VA9800:12:4013300:02:2912300:46:5717200:01:1428100:27:17 01:30:34 
152177 44MChuck PotterGermantown MD23400:14:1921800:02:569000:45:41     01:30:39 
153274 37FSarah CarruthArlington VA8200:12:267900:02:1320700:49:2416700:01:1419200:25:29 01:30:44 
154527 51MSteven FeldmanWashington DC1500:10:3528300:03:1310600:46:2131100:01:3636100:29:01 01:30:44 
PlaceBibCoAgSNAMEcity/stateRankSWIMRankT1RankBikeRankT2RankRUNPENALTYTIMEDQ
155269 52FKellie MastrodonatoArlington VA30700:15:096900:02:1014800:47:4822100:01:2014300:24:20 01:30:45 
156203 48FKris ToomeyZionsville PA6200:12:0611700:02:2418900:48:5630200:01:3422000:26:02 01:30:59 
157214 33MChris JohnsonCentreville VA8100:12:2517600:02:4227200:51:3424200:01:239200:23:10 01:31:12 
158289 51MGeorge SabolVirginia Beach VA23500:14:206000:02:0416900:48:192900:00:5220300:25:39 01:31:13 
159299 51MDennis MyersChesapeake VA16800:13:2723400:03:0017900:48:3430400:01:3415900:24:43 01:31:16 
160243 41FNicole GoergeRuckersville VA46900:17:542500:01:4917700:48:329800:01:045900:21:59 01:31:16 
16141 64MBrad MetcalfRichmond VA24300:14:266200:02:0516600:48:1123900:01:2317100:25:14 01:31:17 
162224 33FMegan CarneyArlington VA12400:12:558300:02:1411000:46:3116600:01:1433700:28:30 01:31:22 
163421 36FCarolyn BasistaWashington DC13800:13:0923000:02:5916400:48:1033600:01:3919400:25:29 01:31:23 
164126 44MAdam RubenWashington DC15200:13:1914300:02:3123600:50:2423200:01:2211500:23:50 01:31:24 
165400 57MBen FoyMurrysville PA13600:13:0810500:02:2018400:48:4721600:01:1921400:25:54 01:31:26 
166294 56FConnie MaxwellNewport News VA18000:13:3411500:02:237200:45:0314600:01:1037100:29:21 01:31:30 
167632A28FSamantha MaderArlington VA16000:13:2121400:02:549900:46:0624400:01:2330800:27:59 01:31:41 
168480 27MJonathan MontetWashington DC10900:12:459600:02:1817400:48:2622500:01:2125500:26:53 01:31:41 
169125 31FJennifer TuckerStafford VA28700:14:543700:01:5520400:49:157300:01:0115700:24:41 01:31:43 
170266 34MJeff BerggrenAlexandria VA35500:15:5929500:03:1712800:47:0512700:01:0813900:24:16 01:31:43 
17164 29MJordan KwokWashington DC39900:16:3515800:02:3818600:48:4911300:01:068200:22:48 01:31:54 
172475 66MLarry AtkinsWashington DC25900:14:3527500:03:1011500:46:3839900:01:5320600:25:45 01:31:59 
17350 37MStephen WootenReston VA39200:16:3024700:03:0210900:46:2922700:01:2115500:24:40 01:32:00 
174573 34MDaniel AlvarezWashington DC35100:15:5520800:02:528200:45:2832600:01:3823300:26:16 01:32:07 
175401 37MRoger TorresWashington DC38000:16:2032700:03:2819200:48:5737300:01:465200:21:48 01:32:16 
176545 15MMichael KellerWilliamsburg VA4100:11:4019100:02:4823000:50:149000:01:0324400:26:34 01:32:17 
177552 17FKara KendallOak Hill VA21200:13:5827100:03:1029800:52:3310600:01:054500:21:34 01:32:17 
178238 32MRobert GarnseyAshburn VA18500:13:3732200:03:2628900:52:1634300:01:403600:21:30 01:32:27 
179525 52MChris WilmotWarrenton VA13900:13:0950900:04:4819500:49:001100:00:4416200:24:51 01:32:30 
180130 44MSteve ElsbergArlington VA39800:16:3430400:03:1915500:47:5745900:02:067600:22:37 01:32:32 
181558 45MFerris SalhabManakin Sabot VA28500:14:5329000:03:1520000:49:0923700:01:2212200:23:57 01:32:35 
182582 38FCourtney InglefieldReston VA28200:14:5221900:02:5616500:48:1127500:01:2917900:25:17 01:32:43 
183139 29FKristen KleshArlington VA37800:16:1813800:02:2918500:48:4821800:01:1911700:23:52 01:32:45 
184303 53MBrian LeonardOak Hill VA25500:14:3527800:03:1219900:49:0835400:01:4213200:24:12 01:32:46 
185731 51MLeonard BechtelArlington VA11100:12:4724900:03:0319800:49:0514900:01:1224900:26:43 01:32:48 
PlaceBibCoAgSNAMEcity/stateRankSWIMRankT1RankBikeRankT2RankRUNPENALTYTIMEDQ
186280 47MBrian SmithRadford VA22000:14:0312500:02:2725500:50:5330600:01:3412100:23:57 01:32:53 
187352 49FAlison SimonWashington DC29300:14:5810400:02:2019100:48:577600:01:0120900:25:47 01:33:00 
188415 61MBarry DiciccoOakton VA16100:13:2415500:02:3514100:47:2611600:01:0734100:28:33 01:33:03 
189357 34MJason MillerSuffolk VA8700:12:3011000:02:2221600:49:447100:01:0128900:27:33 01:33:07 
190614MC47MDavid McCreadyArlington VA13700:13:0826500:03:0825600:50:5611700:01:0716300:24:51 01:33:09 
191346 31MGreg MowlesAlexandria VA10200:12:4120900:02:5229200:52:2010200:01:0514100:24:17 01:33:14 
192239 33FAddie SchroederArlington VA33200:15:3024300:03:0212400:47:0047900:02:1619900:25:31 01:33:16 
193347 45MMark MillerArlington VA14800:13:1514200:02:3113600:47:1921000:01:1836000:28:57 01:33:19 
194417 31FRachael BoschWashington DC34300:15:4711800:02:2419300:48:576800:01:0017800:25:16 01:33:22 
195229 28MCraig HerlihyArlington VA20300:13:5118300:02:4526000:51:0128900:01:3113700:24:15 01:33:22 
196622MC48MTodd SmithLorton VA15500:13:2012600:02:2722600:50:0624500:01:2422300:26:08 01:33:23 
197385 34MBrett MillerFairfax VA12500:12:5721500:02:5422300:49:58700:00:4226000:26:58 01:33:27 
198487 29MAndrew ClementWashington DC12000:12:519300:02:1831900:53:1023600:01:2211600:23:50 01:33:29 
199335 64MDavid ConoverGreat Falls VA24000:14:242000:01:4817200:48:2429100:01:3228500:27:26 01:33:32 
20058 47MJ. Michael MonacoEdgewater MD3000:11:1916800:02:4119600:49:0341600:01:5634300:28:36 01:33:33 
201100 37FElizabeth ColemanWashington DC36800:16:1023300:03:0012600:47:0320300:01:1722800:26:10 01:33:38 
20290 41FAndrea LatellIrvington VA7300:12:1712300:02:2514200:47:3535200:01:4138900:29:55 01:33:51 
203329 42MChristopher BrownBroad Run VA4000:11:3912400:02:2622100:49:5512000:01:0735100:28:46 01:33:52 
20471 39MTimothy HuddlestonArlington VA21700:14:0236300:03:3929600:52:3023300:01:227500:22:33 01:34:05 
205160 29FSarah GansleinWashington DC19500:13:4436100:03:3821900:49:4749200:02:2315300:24:35 01:34:06 
20677 46MDavid KoppenhaverChesapeake VA17500:13:325700:02:0313900:47:2419400:01:1639300:30:00 01:34:13 
20792 45FHolly NorthupNewport News VA4300:11:436800:02:1027300:51:3513300:01:0929700:27:40 01:34:15 
208457 31FSika HenryNewport News VA17400:13:3129300:03:1637300:54:5033400:01:392600:21:00 01:34:15 
209366 20MTimothy HenselCollege Park MD24700:14:3119000:02:4730400:52:523200:00:539300:23:16 01:34:17 
210559 48MDavid MostonManassas VA30900:15:1135400:03:3712200:46:5547500:02:1524100:26:25 01:34:22 
211220 43FAlice CuninNorfolk VA18900:13:4025100:03:0433200:53:29     01:34:23 
212569 47MJoel BrouWashington DC37700:16:1826700:03:0916300:48:0635700:01:4317000:25:12 01:34:26 
213432 29MDaniel DavisAlexandria VA32600:15:2516600:02:4017600:48:315200:00:5726500:27:02 01:34:33 
214174 45FStephanie SeibergBethesda MD22800:14:1415000:02:3422800:50:1123000:01:2224200:26:25 01:34:45 
215383 33MErik RuselowskiWashington DC18200:13:3513700:02:2924100:50:2819000:01:1627000:27:06 01:34:52 
216105 33MJarrett ConwayAlexandria VA27900:14:5020200:02:5116000:48:0216100:01:1330700:27:58 01:34:53 
PlaceBibCoAgSNAMEcity/stateRankSWIMRankT1RankBikeRankT2RankRUNPENALTYTIMEDQ
217476 29FLannie MarshArlington VA17100:13:2811600:02:2432800:53:227400:01:0115800:24:41 01:34:55 
218446 14MBrandon BaumgartnerAlexandria VA21000:13:5730200:03:1826300:51:0516800:01:1418800:25:26 01:34:58 
219374 40MMatthew GotlinOwings Mills MD26900:14:4242400:03:5918800:48:5527900:01:3021500:25:56 01:35:00 
220226 31MPatrick CrileArlington VA31900:15:1931100:03:2119400:48:5935600:01:4320400:25:41 01:35:01 
221493 44MJim FooteWaldorf MD38200:16:2129800:03:1715600:47:5820700:01:1822900:26:11 01:35:03 
222252 31FMegan Sowder-StaleyWashington DC16900:13:2729100:03:1622500:50:0142700:01:5824000:26:23 01:35:03 
223433 50FMartha HowarLeesburg VA26500:14:3938400:03:4723700:50:2440100:01:5314700:24:28 01:35:08 
22453 45FEmily ArmstrongRockville MD40900:16:4825700:03:0511700:46:4830900:01:3526100:26:59 01:35:14 
225404 32MAlexander BaileyWashington DC17900:13:3319400:02:4932000:53:1131700:01:3713000:24:08 01:35:16 
226377 30FCarolyn KilkusBethesda MD12700:13:0133200:03:3036500:54:331500:00:4810200:23:27 01:35:17 
227522 41MVijay DsouzaWashington DC31800:15:1939800:03:5222000:49:5246600:02:1114000:24:17 01:35:28 
2281MM36MJay SterrettAlexandria VA33900:15:3716500:02:4021400:49:3829000:01:3222100:26:04 01:35:29 
229553 16FCasey KendallOak Hill VA21100:13:5827400:03:1042000:56:553800:00:542200:20:35 01:35:30 
230248 30MBrian KleshArlington VA33100:15:3023700:03:0114900:47:4927800:01:3030100:27:45 01:35:32 
231461 40MSam SalhabManakin Sabot VA27600:14:4635700:03:3814000:47:2448500:02:1828600:27:29 01:35:33 
232192 44MMatthew LegerArlington VA24200:14:2626400:03:0827500:51:3616500:01:1417200:25:14 01:35:35 
233230 28FJennifer WeaverChantilly VA7900:12:2331700:03:2334400:53:49800:00:4218300:25:22 01:35:37 
234596 55FEllen GuintherRichmond VA5000:11:5422700:02:5833800:53:4335300:01:4119000:25:26 01:35:40 
235466 48MMark HowshamOakton VA28300:14:5250700:04:4612000:46:5250400:02:3025200:26:47 01:35:45 
236497 48FJami Callahan-BrillHampton VA12100:12:5118500:02:4627900:51:5826600:01:2825900:26:57 01:35:58 
237368 32MMatt RoushAlexandria VA11500:12:4923800:03:0140300:56:1133500:01:397000:22:21 01:35:59 
238159 33MElvis StumbergsWashington DC40300:16:4239900:03:5220600:49:2135900:01:4314500:24:24 01:36:00 
239178 56MMark RyanManassas VA15800:13:2113200:02:2820500:49:1640200:01:5336800:29:10 01:36:06 
240163 34MDaniel DellerReston VA30600:15:0924800:03:0228600:52:0725500:01:2615000:24:30 01:36:13 
241607C34MSted GarberArlington VA25700:14:3532800:03:2925700:50:5744100:02:0217700:25:16 01:36:16 
242594 39FAndrea WuebkerMinneapolis MN25400:14:3526100:03:0726200:51:0226400:01:2722500:26:08 01:36:17 
243529 32MJoshua MorinMcLean VA9300:12:3232400:03:2731200:53:0341400:01:5518400:25:22 01:36:18 
244507 53FCynthia RevesmanHerndon VA24400:14:2728600:03:1525200:50:5028700:01:3123400:26:18 01:36:19 
245693NM47MJeff OlnhausenFalls Church VA30500:15:0849000:04:3726700:51:179500:01:0413600:24:15 01:36:20 
246688NM33MEric MedoffArlington VA30000:15:0519300:02:4921700:49:4517400:01:1428700:27:32 01:36:23 
247244 30FAdrianne BrakefieldWashington Dc DC20000:13:4914000:02:3124800:50:4119100:01:1632100:28:13 01:36:27 
PlaceBibCoAgSNAMEcity/stateRankSWIMRankT1RankBikeRankT2RankRUNPENALTYTIMEDQ
248479 26FAlexis LevinsonWashington DC29400:14:5935900:03:3824000:50:2844400:02:0318600:25:24 01:36:30 
24983 50MKylor WhitakerHaymarket VA27800:14:489900:02:1923500:50:2215200:01:1230500:27:52 01:36:32 
250147 54MThomas BlackVienna VA6000:12:0530500:03:1921200:49:3538700:01:4838700:29:50 01:36:35 
251198 36MDaniel BeamanAlexandria VA56500:23:5923900:03:011900:41:5327100:01:2923600:26:18 01:36:39 
252240 50MAlex TaitSilver Spring MD23900:14:2428900:03:1526600:51:1743300:02:0020800:25:45 01:36:39 
253184 20MErik AuerArlington VA41500:16:5513900:02:3036700:54:383500:00:545300:21:49 01:36:44 
25430 39MMichiel Van ZadelSterling VA41100:16:49      16100:24:47 01:36:51 
25575 51MRj RedstromPowhatan VA25000:14:3218600:02:4623200:50:1828100:01:3030200:27:48 01:36:52 
256464 43FLynette MasonNorfolk VA30800:15:1025000:03:0324900:50:4140500:01:5323100:26:14 01:36:59 
257395 25MBryan NolanArlington VA41400:16:5423600:03:0119700:49:0424600:01:2424600:26:39 01:37:00 
258149 33MAlex ChisholmReston VA9000:12:3125600:03:0527000:51:2928600:01:3133100:28:27 01:37:01 
259371 28MTorrey SmithArlington VA12800:13:0236800:03:4136400:54:3230300:01:3413500:24:14 01:37:02 
26018 49FShannon BairdFalls Church VA45600:17:4314700:02:3311400:46:3831500:01:3734000:28:33 01:37:02 
261124 48FMichele PotterGermantown MD24800:14:3239400:03:5126500:51:1617800:01:1423700:26:20 01:37:11 
26261 31FLisa KohlWashington DC15900:13:2124100:03:0230600:53:0020000:01:1724500:26:35 01:37:13 
263133 46MPaul LePotomac Falls VA36300:16:0619500:02:4922200:49:5721200:01:1827500:27:09 01:37:19 
264411 33MTodd FinkboneWashington DC43800:17:2836400:03:4034100:53:4545700:02:061900:20:29 01:37:25 
265403 52MCharlie PennFredericksburg VA31700:15:1926600:03:0935000:53:5640000:01:5310500:23:33 01:37:48 
266409 50MPeter MattesCentreville VA26600:14:4032300:03:2621300:49:3842200:01:5832200:28:14 01:37:54 
267150 31MBen ChisholmReston VA10700:12:4419700:02:5038200:55:059400:01:0423200:26:15 01:37:56 
2686MM42MGrigory MedinaNorfolk VA33700:15:3541000:03:5523900:50:2646900:02:1321100:25:52 01:37:59 
26995 65MJohn TanseyWilliamsburg VA28600:14:5315100:02:3415800:48:0128200:01:3042400:31:12 01:38:09 
270375 45MDavid DolezelCalifornia MD51800:19:3017300:02:4220900:49:2613700:01:0918700:25:25 01:38:11 
271373 36MAmar TappouniAlexandria VA44000:17:2835600:03:3824200:50:2924300:01:2318000:25:17 01:38:13 
272281 29MJaymes DresselApo NY51900:19:3516700:02:4022900:50:1235100:01:4113300:24:12 01:38:19 
273499 31FSierra WinserKing George VA4900:11:5121600:02:5426800:51:2346700:02:1239900:30:10 01:38:28 
274356 18MNick PolanoskySpotsylvania VA19900:13:4835800:03:3830100:52:402600:00:5228800:27:33 01:38:29 
275103 40FLaure RayRichmond VA6800:12:1119200:02:4832300:53:1822600:01:2136500:29:07 01:38:44 
276345C28MChad BartlettGaithersburg MD20600:13:5324500:03:0228800:52:1017500:01:1433200:28:27 01:38:44 
277677NF35FLaurie JohnsonCentreville VA41700:16:5639200:03:5016800:48:1552500:02:4627300:27:09 01:38:54 
278425 32FChristy WahleAlexandria VA27000:14:4217200:02:4131700:53:1017100:01:1427200:27:08 01:38:54 
PlaceBibCoAgSNAMEcity/stateRankSWIMRankT1RankBikeRankT2RankRUNPENALTYTIMEDQ
279478 27FKathryn PurdyArlington VA41600:16:5516900:02:4125300:50:5125800:01:2626800:27:04 01:38:56 
280484 28FCaroline PhillipsWashington DC17300:13:3118400:02:4534500:53:4915400:01:1230300:27:49 01:39:03 
281256 34MJeremy JensenWashington DC4600:11:4421700:02:5529300:52:2219900:01:1741600:30:51 01:39:07 
282643NF39FToni KernsWashington DC10600:12:4340600:03:5438300:55:0811900:01:0723800:26:21 01:39:11 
283623MC41MChad HamelFalls Church VA36400:16:0717800:02:4329900:52:386500:00:5927800:27:13 01:39:38 
284330 35FErica RobertsSterling VA32800:15:2710000:02:1934200:53:4727000:01:2825000:26:43 01:39:43 
285535 26FSara LariosWashington DC21800:14:029100:02:1736100:54:2328300:01:3129400:27:37 01:39:47 
28656 32FAmie QuinnReston VA21900:14:0220400:02:5229400:52:2326800:01:2837300:29:23 01:40:06 
28755 55MAl NavidiRockville MD50600:18:5529700:03:1721000:49:3032400:01:3825700:26:55 01:40:13 
288211 49MBertrand RigaldiesCharlottesville VA14200:13:1348200:04:3027700:51:5349100:02:2232400:28:18 01:40:15 
289606C31MNathan FoleyCharlottesville VA39600:16:3235500:03:3827600:51:4742600:01:5823900:26:22 01:40:15 
290585 47MRichard PittmanAshburn VA29900:15:0333000:03:2924700:50:4040800:01:5436900:29:13 01:40:17 
291245 51FJennifer BauerleCharlottesville VA39700:16:3437700:03:4320800:49:2540900:01:5434900:28:44 01:40:19 
292364 19FLaura MillerCollege Park MD31300:15:1613100:02:2836200:54:2414700:01:1027100:27:08 01:40:24 
29311MM43MFrederic Tuset-AnresNorfolk VA37900:16:1942600:04:0038800:55:1730800:01:349600:23:20 01:40:29 
294167 56MDavid CooperAshburn VA40000:16:3724400:03:0226100:51:0225300:01:2533000:28:26 01:40:30 
295186 36MSteven FeldsteinWashington DC45700:17:4352100:05:0123800:50:2549300:02:2316700:25:05 01:40:34 
296175 42MCraig SimpsonGreat Falls VA46300:17:4744800:04:1021500:49:4434200:01:4028300:27:21 01:40:40 
297320 42FCarolyn HansonAlexandria VA22300:14:0732600:03:2833500:53:3521300:01:1832500:28:19 01:40:46 
29874 42MKip PrestholdtAlexandria VA8000:12:2433600:03:3228700:52:1033300:01:3936300:29:0300:02:0001:40:47 
299197 29FBrittany BirdArlington VA6100:12:0526900:03:0929100:52:1948900:02:2141900:30:55 01:40:48 
300641 28FTessa WinnMontgomery Village MD7400:12:1927700:03:1228200:52:045500:00:5844500:32:20 01:40:51 
301472 41FSandy EliaKing George VA22400:14:0918900:02:4727100:51:2937600:01:4741200:30:42 01:40:51 
302296 33FAmanda WatkinsNewport News VA41800:16:5737600:03:4337500:54:5214800:01:1014200:24:19 01:41:00 
30315MF28FJenna ShephardFort Belvoir VA30400:15:0816100:02:3934700:53:491900:00:5034800:28:44 01:41:08 
30481 44FLisa MackemReston VA48600:18:2027300:03:1018100:48:3939000:01:4937000:29:20 01:41:16 
305213 27FSarah KennelleyWashington Dc DC19200:13:424400:01:5841800:56:5314300:01:1029100:27:36 01:41:17 
306684NM33MLuke WhittingtonAshburn VA47400:17:5735300:03:3725000:50:4134000:01:4028400:27:23 01:41:17 
307501 52FKristina AmentAlexandria VA33300:15:3248900:04:3724300:50:3545800:02:0633800:28:32 01:41:20 
308236 28FSandy SuWashington DC21500:14:0046800:04:2134000:53:4437800:01:4729200:27:36 01:41:26 
309712NM38MTravis LefeverJamestown NC46100:17:4546100:04:1620100:49:1143900:02:0132700:28:23 01:41:36 
PlaceBibCoAgSNAMEcity/stateRankSWIMRankT1RankBikeRankT2RankRUNPENALTYTIMEDQ
310629A39FNathalie BehnMcLean VA54500:21:3915400:02:3513200:47:1517300:01:1435700:28:54 01:41:36 
311141 53MDave MiddletonAshburn VA22500:14:1020500:02:5235500:54:1247600:02:1531900:28:12 01:41:39 
312562 46FBrooke CurranAlexandria VA51000:19:0140800:03:5531400:53:0546800:02:1210600:23:36 01:41:46 
313334 38MDavid OcasioLeesburg VA           01:42:05 
314624MC44MMichael WeberVirginia Beach VA24500:14:2731600:03:2232500:53:2031600:01:3737200:29:22 01:42:05 
315394 42MEugene GuilaranArlington VA39500:16:3222800:02:5930300:52:5112100:01:0834600:28:41 01:42:08 
316441 34FNatalie KempkeyWashington DC24600:14:2842300:03:5925800:50:5734900:01:4142300:31:07 01:42:11 
317308 31FElizabeth WestbrookWashington DC29000:14:5554200:05:1834600:53:4954500:03:0417600:25:15 01:42:19 
318332 44FShira YoffeWashington DC29600:15:0131300:03:2130200:52:5049500:02:2435600:28:50 01:42:24 
31936 39MJustin NerodaAshburn VA53800:20:5344000:04:0622400:50:0013400:01:0923500:26:18 01:42:24 
320396 34FJennifer MedinaFalls Church VA5500:12:0034900:03:3542100:56:5545000:02:0430900:27:59 01:42:32 
321519 43MChris DickeyMidlothian VA50400:18:5045200:04:1216100:48:0555400:03:1831700:28:09 01:42:32 
322306 53FJanet JanasClifton VA7600:12:2117900:02:4340600:56:2546300:02:1036200:29:02 01:42:40 
323696NM30MMatt HollandClifton VA30300:15:0845300:04:1230500:52:5335500:01:4235400:28:49 01:42:42 
324681NF30FKatherine DintermanWashington DC48000:18:0334800:03:3527800:51:58     01:42:47 
325386 32MKyle AdamsArlington VA42300:17:0840700:03:5533300:53:3131800:01:3726400:27:00 01:43:08 
326708NM24MMichael RiccardFairfax VA44100:17:2838700:03:4726900:51:2834800:01:4135500:28:50 01:43:12 
327246 34FAlison EddyArlington VA28000:14:5047800:04:2822700:50:0938900:01:4943400:31:59 01:43:13 
328489 53MEdward LustigCharlotte Hall MD29700:15:0233500:03:3231100:53:0221700:01:1940600:30:28 01:43:21 
32993 70MDavid GearinArlington VA26800:14:4134400:03:3317300:48:2549800:02:2549000:34:23 01:43:27 
330697NM45MRichard PealFalls Church VA42800:17:1640500:03:5435300:54:0823100:01:2225300:26:51 01:43:28 
33137 19MAdam DavisMidlothian VA30200:15:0845100:04:1239200:55:338700:01:0329800:27:41 01:43:35 
332369 30MTravis ThekkudanArlington VA47700:17:5934300:03:3336300:54:2439300:01:4921200:25:54 01:43:37 
333339 52MRay MontgomeryHampton VA23700:14:2137100:03:4228300:52:0444000:02:0142600:31:32 01:43:39 
334496 27FSara JoseyFredericksburg VA31400:15:1748100:04:3033900:53:4345400:02:0531600:28:08 01:43:41 
335587 33MDerrick RychlikCulpeper VA28900:14:5448700:04:3431600:53:0937200:01:4637600:29:29 01:43:51 
336370 28FAleza CainArlington VA14000:13:1140100:03:5241500:56:5048700:02:1929900:27:42 01:43:53 
337676 38FMelissa EricksonYorktown VA48900:18:2142000:03:5832900:53:248900:01:0327400:27:09 01:43:54 
338194 33FSarah McKenzieArlington VA35900:16:0322600:02:5740900:56:3637700:01:4724700:26:39 01:44:00 
339540 41FJoanna SilverSilver Spring MD43100:17:2114800:02:3336600:54:3640300:01:5329600:27:40 01:44:01 
340231 24MMatt StevensBaltimore MD900:10:0616300:02:3950101:02:0019300:01:1631200:28:03 01:44:02 
PlaceBibCoAgSNAMEcity/stateRankSWIMRankT1RankBikeRankT2RankRUNPENALTYTIMEDQ
341598 52FTeresa DumpeHagerstown MD45800:17:4433400:03:3232400:53:1922000:01:1932000:28:13 01:44:04 
342655NF23FHannah HoffmanWashington DC42600:17:1235100:03:3635200:54:0445300:02:0427900:27:13 01:44:06 
343521 16FIris GonzalezPort Republic MD27500:14:4529900:03:1744000:58:0916300:01:1425100:26:46 01:44:09 
344180 22MLeor ReefWashington DC14700:13:1527600:03:1135400:54:1229400:01:3343500:32:01 01:44:10 
345215 33MMatthew OwenAlexandria VA44400:17:3211100:02:2231000:53:0222300:01:2039000:29:56 01:44:11 
34662 50MAndrew BaillieNokesville VA44700:17:3445400:04:1328000:51:5939400:01:5034500:28:40 01:44:14 
347380 38MIvan IversonHaymaket VA31100:15:1437400:03:4338400:55:1036000:01:4333600:28:30 01:44:17 
34816MF46FDiana StaneszewskiArlington VA31600:15:1818000:02:4437800:54:5422200:01:2039500:30:03 01:44:18 
349572 32FMargaret ChadbournWashington DC14500:13:143400:01:5346600:59:4848400:02:1827600:27:10 01:44:21 
350642 27FNora LewisWashington DC21600:14:0223200:02:5932200:53:1542000:01:5745100:32:30 01:44:41 
351685NM41MJess WeidmanRichmond VA52800:20:0927000:03:1031800:53:1018000:01:1526200:26:59 01:44:41 
352314 45MRobert MillerChester VA38800:16:2434600:03:3430800:53:0018800:01:1640800:30:31 01:44:44 
353118 37MNick HobenPartlow VA45500:17:3934000:03:3237400:54:5134700:01:4126900:27:05 01:44:46 
354251 25FRachel SparksAshburn VA6400:12:0830600:03:1936900:54:4036200:01:4446500:33:01 01:44:50 
355512 47MOliver PottsArlington VA40100:16:4133800:03:3243000:57:308600:01:0322200:26:06 01:44:51 
356701NM30MTsvetomir VretenarovWashington DC35600:16:0053800:05:1441400:56:4826200:01:2719500:25:29 01:44:57 
357452 33MRyan MrozFalls Church VA34800:15:5455900:06:0539500:55:4250500:02:3016400:24:52 01:45:01 
358565 38FJulia TaylorStafford VA34900:15:5446200:04:1637600:54:5450700:02:3129000:27:34 01:45:07 
359571 51MGarry YoungArlington VA28100:14:5145800:04:1437700:54:5445200:02:0436700:29:09 01:45:10 
360228 30FKate ShineArlington VA13000:13:0443500:04:0441700:56:5237400:01:4637800:29:31 01:45:15 
361671NF31FLauren AnnebergWashington DC38100:16:2033100:03:2941000:56:429700:01:0430000:27:44 01:45:18 
362630A37FTricia KaneArlington VA32300:15:2225800:03:0531300:53:0433800:01:4044200:32:12 01:45:21 
363511 46FLaura JacksonArlington VA32900:15:2744600:04:0946400:59:4343200:02:0012700:24:04 01:45:22 
364195 35FBecky BaltesSilver Spring MD49900:18:3821200:02:5335900:54:1921100:01:1832300:28:17 01:45:24 
365486 58MDaniel StichnotLexington KY32700:15:2655400:05:5332700:53:217000:01:0138600:29:49 01:45:27 
366621MC53MHampton OberleAnnandale VA38600:16:2348000:04:3037900:54:5543400:02:0029500:27:40 01:45:27 
367282 56FMarjorie AuerAlexandria VA33000:15:2813000:02:2824500:50:3737900:01:4749900:35:13 01:45:31 
368704NM31MGerald WynnAlexandria VA54600:21:4036600:03:4133100:53:2921400:01:1820000:25:32 01:45:38 
369492 29MArup MallikWashington DC41300:16:5143900:04:0632600:53:2043000:02:0037900:29:31 01:45:46 
370112 54MTom AventArlington VA35700:16:0128100:03:1335600:54:1445100:02:0440300:30:17 01:45:47 
371323 35MMark TaylorWashington DC55600:22:3954000:05:1718300:48:4243800:02:0128000:27:13 01:45:49 
PlaceBibCoAgSNAMEcity/stateRankSWIMRankT1RankBikeRankT2RankRUNPENALTYTIMEDQ
372204 40FAya MimuraWashington DC10400:12:4234500:03:3445800:59:0837000:01:4535000:28:46 01:45:52 
373287 60FMaggie BartlettBoyds MD26700:14:4132500:03:2739300:55:3925600:01:2641300:30:44 01:45:56 
374298 25FCatherine TrainorWashington DC23000:14:1529400:03:1645300:58:5131900:01:3733400:28:28 01:46:25 
375235 38FErin McManamonArlington VA36600:16:0849900:04:4334900:53:5249700:02:2538200:29:34 01:46:40 
376613MC43MKevin McNallyFrederick MD48200:18:0435000:03:3626400:51:1336100:01:4344000:32:07 01:46:41 
377515 30FSusan ConwayArlington VA44900:17:3634200:03:3333600:53:4042300:01:5839600:30:06 01:46:51 
37839 38FMaureen DunniganSterling VA40600:16:4550400:04:4537000:54:4144800:02:0435200:28:47 01:46:59 
379538 44FSioban CastorWashington Dc DC49300:18:2944400:04:0823100:50:1553400:02:5242500:31:23 01:47:05 
380505 40FGwynne ReidFairfax VA47900:18:0143200:04:0339800:55:4942400:01:5828200:27:19 01:47:08 
381257 34FAllison DrezekRichmond VA32200:15:2235200:03:3634300:53:4735800:01:4346100:32:49 01:47:16 
382574 31FJessika BriggsVirginia Beach VA18600:13:3717000:02:4144600:58:2634600:01:4042100:30:59 01:47:22 
38319 39MEric CookChesapeake VA49000:18:2237000:03:4224400:50:3636300:01:4446800:33:06 01:47:27 
384348 60FCarol GruenburgAlexandria VA28800:14:5452000:05:0041100:56:4350000:02:2734400:28:37 01:47:40 
385604C32MDavid CooperAlexandria VA46000:17:4526300:03:0838000:54:5931400:01:3640400:30:18 01:47:44 
386605C31MFernando PorterWashington DC56600:24:0822900:02:5929500:52:2828000:01:3024800:26:42 01:47:45 
387568 51MNeil SemmelBear DE22200:14:0537900:03:4428400:52:0650300:02:2850500:35:32 01:47:52 
388646NF27FXoco ShinbrotArlington VA36500:16:0818800:02:4743600:57:4411000:01:0639800:30:10 01:47:53 
389557 44FLisa HarfootAlexandria VA29100:14:5721300:02:5344200:58:1833900:01:4039700:30:07 01:47:53 
390135A42FTraci MarinBristow VA27400:14:4522300:02:5736800:54:3829800:01:3348700:34:05 01:47:56 
39166 46MThomas RobisonAlexandria VA42100:17:0612100:02:2530000:52:3943500:02:0043900:32:0600:02:0001:48:14 
392448 45FKatrina KoomeyArlington VA44800:17:3638800:03:4729000:52:1752200:02:4343200:31:56 01:48:16 
393463 41FKerensa HadleyFairfax VA31200:15:1514500:02:3243100:57:3212200:01:0843100:31:51 01:48:16 
394268 39MDion DavitianFairfax VA36900:16:1048400:04:3238700:55:1541000:01:5440500:30:27 01:48:17 
395144 29MMichael KimoshWashington DC16600:13:2547600:04:2635100:54:0156600:04:0846400:32:59 01:48:57 
396290 55MJack WilbernVienna VA32100:15:2153100:05:0635800:54:1644200:02:0244300:32:15 01:48:59 
397634A36FDebbie PedersonAlexandria VA16500:13:2532000:03:2444300:58:2119600:01:1745500:32:35 01:48:59 
398322 49FMarnie DeatonRuckersville VA26300:14:3825300:03:0442500:57:0641700:01:5644600:32:21 01:49:03 
399575 41FSherri BrothersAlexandria VA34000:15:3931500:03:2241200:56:4525200:01:2543700:32:03 01:49:11 
400408 39MDevon KramerAnnandale VA           01:49:15 
401477 44FSarah WaldmanArlington VA52000:19:3543700:04:0539400:55:4241200:01:5531000:28:01 01:49:16 
402631A30FCortney DonnalleyWashington DC37500:16:1733700:03:3242200:56:5936700:01:4541500:30:49 01:49:21 
PlaceBibCoAgSNAMEcity/stateRankSWIMRankT1RankBikeRankT2RankRUNPENALTYTIMEDQ
403225 53FHeike YatesSilver Spring MD51600:19:2145000:04:1142700:57:1538600:01:4827700:27:12 01:49:45 
404616MC41MMichael NearyGainesville VA53700:20:4919900:02:5024600:50:4054400:03:0444700:32:25 01:49:46 
405189 22MManar ZaghlulaWashington DC54800:21:5954400:05:1938100:55:0037500:01:4721000:25:49 01:49:51 
406397 56FJoni BrigantiSpotsylvania VA22900:14:1543000:04:0239600:55:4249900:02:2747600:33:28 01:49:51 
407227 38FHeather McGowanArlington VA43300:17:2255300:05:3940500:56:1854200:03:0329300:27:36 01:49:57 
408119 19FLia RussellRichmond VA35800:16:0153900:05:1543900:57:5448100:02:1833900:28:32 01:49:58 
409127 28MNathaniel GreesonWashington DC48800:18:2155100:05:3739900:55:5327300:01:2934700:28:43 01:50:01 
410612MC56MRichard DumeneBarboursville VA36000:16:0431200:03:2128500:52:0736500:01:4552500:37:04 01:50:18 
411254 58MPaul FosterLaytonsville MD52100:19:4247300:04:2335700:54:1652600:02:4638100:29:34 01:50:39 
412171 40MDavid HumphreysHerndon VA15400:13:2055000:05:3746700:59:4954600:03:0535800:28:56 01:50:45 
413661NF30FGrace CarrollWashington DC52600:20:0141600:03:5745200:58:5030500:01:3424300:26:28 01:50:48 
41446 45MChristopher BakerWoodbridge VA33500:15:3443100:04:0246200:59:3652000:02:4336600:29:08 01:51:01 
415277 51FDonna SumptionArlington VA56300:23:37100:00:0030700:53:0053000:02:4942700:31:39 01:51:04 
416349 38MMatt KuryloFredericksburg VA39000:16:2742200:03:5945700:59:0432000:01:3739400:30:02 01:51:07 
417729NF43FJennifer HomendyFredericksburg VA31500:15:1828700:03:1547601:00:1339800:01:5140900:30:39 01:51:14 
418619MC43MScott PitsleyHighland MD46500:17:5138100:03:4528100:52:0125700:01:2651400:36:19 01:51:20 
419166 46FBonnie McCreadyArlington VA42200:17:0847900:04:2939100:55:3332800:01:3845600:32:37 01:51:22 
420321 50FMargaret KrickFredericksburg VA39100:16:2824000:03:0133700:53:4143100:02:0051500:36:20 01:51:29 
421703NM28MJordan RhodesWashington DC50100:18:4438900:03:4849401:01:3718100:01:1522400:26:08 01:51:30 
422291 42MSiddharth ShahArlington VA48500:18:1941300:03:5745600:59:0249400:02:2330400:27:51 01:51:30 
423273 48FSherri SabolVirginia Beach VA25200:14:3316200:02:3951401:03:2715300:01:1238500:29:46 01:51:35 
424318 34FShannon CooperLocust Grove VA23200:14:1828400:03:1345500:59:0138100:01:4747500:33:25 01:51:43 
425399 29FErin DonovanHarpers Ferry WV25800:14:3544200:04:0648301:00:5251800:02:4238000:29:34 01:51:46 
42676 67FKari SprecherLeesburg VA44300:17:3031000:03:2038900:55:1747400:02:1447700:33:31 01:51:50 
427272 38FKaty MankinAnnandale VA6300:12:0647400:04:2448101:00:4821500:01:1947200:33:19 01:51:55 
428543 55FMary TognarelliRichmond VA36100:16:0442700:04:0043700:57:5321900:01:1945900:32:47 01:52:02 
429656NF38FMelinda BuchananCharlottesville VA37000:16:1437200:03:4245400:58:5247200:02:1442200:31:02 01:52:02 
43028 54MRick FayyadRockville MD51500:19:2024600:03:0232100:53:1348000:02:1648900:34:20 01:52:08 
431586 38FJessica WyndhamWashington DC34100:15:4028800:03:1540800:56:3425900:01:2650100:35:16 01:52:10 
432609C35MCharlie WilkesArlington VA43900:17:2833300:03:3143200:57:3639700:01:5143000:31:47 01:52:11 
433584 28MTung PhungSterling VA56400:23:3829200:03:1637200:54:4929900:01:3335900:28:56 01:52:11 
PlaceBibCoAgSNAMEcity/stateRankSWIMRankT1RankBikeRankT2RankRUNPENALTYTIMEDQ
434597 48FOna DosunmuWashington DC51700:19:2642800:04:0133400:53:3154900:03:0944100:32:08 01:52:13 
435165 34MBenjamin BerlinWashington DC37100:16:1547200:04:2348601:01:0110700:01:0538300:29:37 01:52:19 
436336 37FCatherine FocaMoseley VA13500:13:0737500:03:4351901:03:5211200:01:0641400:30:47 01:52:32 
43717 55MChristopher DacostaPoint Of Rocks MD53600:20:4644500:04:0937100:54:4451000:02:3540700:30:29 01:52:40 
438633A30FAnne KenneyWashington DC26000:14:3644900:04:1040200:56:1042800:01:5950900:35:48 01:52:41 
43960 28FLaura SlingerlandLexington Park MD38500:16:2239500:03:5129700:52:3237100:01:4653500:38:12 01:52:41 
440510 27FAllison BlajdaWashington DC50900:18:5955800:06:0443800:57:5339200:01:4931500:28:07 01:52:50 
441625MC48MGregory DumontAlexandria VA24900:14:3243600:04:0540000:55:5325400:01:2652600:37:06 01:53:01 
442438 45FLisa FolbCentreville VA49700:18:3445600:04:1345900:59:0826500:01:2738400:29:43 01:53:04 
44345 36MPeer MummeAnnandale VA37300:16:1649700:04:4147201:00:0414500:01:1042000:30:58 01:53:07 
444706NM33MJason FarbmanBethesda MD52400:19:5357000:06:3548801:01:1232200:01:3712000:23:54 01:53:09 
44526 43FRosie SjamReston VA46700:17:5436700:03:4139000:55:2227700:01:3049300:34:45 01:53:10 
446595 69MBrad KirleyOrange VA43400:17:2529600:03:1744900:58:4042100:01:5743600:32:01 01:53:18 
44727 46FHala Salha FayyadRockville MD45200:17:37         01:53:26 
448276 39FSusie AhnWashington DC42500:17:1122100:02:5644100:58:1649000:02:2245800:32:43 01:53:27 
449278 35MRobert MaysAlexandria VA47100:17:5436200:03:3938600:55:1550100:02:2748800:34:18 01:53:32 
450142 42FStacy VasquezHyattsville MD52300:19:4736000:03:3840100:55:5646400:02:1043800:32:04 01:53:33 
451702NM33MAndrew DunnNewport News VA45100:17:3752200:05:0152101:03:572800:00:5222700:26:09 01:53:34 
452439 49FMarcia InsleyArlington VA54200:21:2649500:04:4042400:57:0251700:02:4131300:28:06 01:53:53 
453128 49MEvan LeseAlexandria VA35200:15:5645900:04:1538500:55:1247300:02:1451600:36:22 01:53:57 
454549 51FMary MeckleyVa VA39400:16:3152400:05:0245000:58:4444600:02:0342900:31:45 01:54:03 
455694NM52MScott ParadisAlexandria VA52500:19:5450600:04:4644400:58:2553600:02:5531800:28:11 01:54:10 
456327 33FAlexis SoderlundMcLean VA54100:21:2438300:03:4634800:53:5251100:02:3745700:32:42 01:54:19 
457469 51FJulia KadisonWashington DC40800:16:4753700:05:1350701:02:4629500:01:3331100:28:03 01:54:20 
458672NF40FErika ShaughnessyFredericksburg VA35000:15:5557200:06:4446800:59:5155800:03:4032900:28:24 01:54:32 
459699NM43MManish NaikVienna VA26200:14:3845700:04:1346100:59:2747100:02:1448600:34:02 01:54:33 
460648NF40FSuzanne CroyVienna VA48300:18:0640000:03:5242800:57:1838000:01:4748100:33:43 01:54:45 
461490 60FBonnie DattelVirginia Beach VA49400:18:2957600:07:0446000:59:2120400:01:1734200:28:35 01:54:45 
462162 30FFrances TurnerAlexandria VA45900:17:4430700:03:2052501:04:2615500:01:1231400:28:07 01:54:48 
463262 54MDavid HelmsSilver Spring MD49600:18:3437800:03:4430900:53:0143700:02:0153300:37:35 01:54:53 
4649MM42MGalo ChavesAnnandale VA57700:25:5838000:03:4543500:57:4445500:02:0519300:25:29 01:54:59 
PlaceBibCoAgSNAMEcity/stateRankSWIMRankT1RankBikeRankT2RankRUNPENALTYTIMEDQ
465253 57FMary FosterLaytonsville MD43200:17:2147000:04:2141600:56:5239500:01:5049200:34:43 01:55:05 
466102 58MThomas KrahlingFredericksburg VA42000:17:0553300:05:0927400:51:3555100:03:1253700:38:24 01:55:24 
467474 24FAmy BoermanArlington VA32500:15:2432900:03:2950201:02:0218200:01:1547300:33:20 01:55:28 
468241 37FKatherine LindlerPoquoson VA37200:16:1534700:03:3447901:00:4341100:01:5446600:33:04 01:55:28 
469649NF20FPavla OvtchinnikovaWorcester MA54000:21:1919800:02:5041900:56:5420800:01:1846900:33:10 01:55:30 
470450 32FAlexis LayneFalls Church VA30100:15:0539100:03:5049101:01:2249600:02:2447100:33:18 01:55:57 
471686NM40MDustin DavisFredericksburg VA29500:15:0050800:04:4848701:01:12     01:55:57 
472578 55FSharon GriffingSpringfield VA50500:18:5053600:05:1151501:03:3051400:02:3921700:26:00 01:56:08 
473654NF39FJennifer ConnorArlington VA26100:14:3746600:04:1746900:59:5444900:02:0450400:35:27 01:56:17 
474217 39FCalaneet BalasWashington DC37400:16:1744100:04:0647401:00:0754100:03:0346200:32:50 01:56:21 
475398 48MDavid SimmsArlington VA52700:20:0941900:03:5840700:56:2938300:01:4748500:34:00 01:56:21 
476304 37FMary Beth BruggemanBurke VA15300:13:2039600:03:5155601:09:5651600:02:4125600:26:53 01:56:38 
477528 50MMiro LehkyCentreville VA39300:16:3038600:03:4747701:00:2048300:02:1848300:33:50 01:56:43 
478340 28MChris BlankenshipWashington DC54900:22:0150100:04:4340400:56:1539100:01:4944900:32:27 01:57:13 
47944 34FJessica MummeAnnandale VA45300:17:3856900:06:3447000:59:5420100:01:1743300:31:57 01:57:19 
480645NF39FKristy HobenPartlow VA52200:19:4518100:02:4443400:57:4338200:01:4750700:35:35 01:57:32 
481145 40MDavid LauferClifton VA41000:16:4841100:03:5553401:05:0830000:01:3340000:30:10 01:57:34 
48289 24FStephanie SchneiderEllicott City MD34700:15:5339700:03:5144700:58:3440700:01:5453000:37:26 01:57:37 
483416 42FJennifer MasonVirginia Beach VA32400:15:2325900:03:0642300:57:0036400:01:4455000:40:28 01:57:39 
484709NM23MZaid KokajaArlington VA55200:22:0955200:05:3847301:00:0628400:01:3132600:28:22 01:57:43 
485108 12FKatie WinkloskyAshburn VA10300:12:4222400:02:5756701:12:5113600:01:0932800:28:24 01:58:01 
486506 27MWilliam MarshWashington DC50200:18:4546000:04:1552001:03:5636800:01:4537500:29:28 01:58:07 
487640NF30FSarah KingFredericksburg VA48400:18:1240300:03:5252901:04:5514400:01:1039200:30:00 01:58:07 
488424 37FCatherine HallArlington VA46400:17:5048800:04:3646500:59:4553200:02:5147000:33:12 01:58:12 
489542 28FAlexis MillerWashington DC50800:18:5822200:02:5653301:05:079600:01:0441100:30:42 01:58:45 
490567 30FBao Tran PhamVienna VA53300:20:3950500:04:4544800:58:3551300:02:3845000:32:28 01:59:03 
491657NF25FKayla MarshallCharlottesville VA42700:17:1546700:04:1854401:07:0327200:01:2937400:29:27 01:59:30 
492599C30MJoseph HadleyArlington VA47600:17:5844700:04:0948901:01:166900:01:0050300:35:25 01:59:47 
493148 34FElena DigiovannaWashington DC48700:18:2051400:04:5649501:01:3843600:02:0046700:33:05 01:59:56 
494458 46MLonnie LazearReston VA53000:20:1741700:03:5847501:00:0952900:02:4846000:32:49 01:59:59 
49596 63MAlvin RichardsonNewport News VA4200:11:4236900:03:4256601:12:4154700:03:0636400:29:05 02:00:14 
PlaceBibCoAgSNAMEcity/stateRankSWIMRankT1RankBikeRankT2RankRUNPENALTYTIMEDQ
496343 63MAlonzo CrittendenHampton VA36200:16:0544300:04:0836000:54:2155600:03:3056300:42:33 02:00:35 
49754 47FPatty GlassManassas Park VA33400:15:3334100:03:3341300:56:4841500:01:5656500:42:48 02:00:36 
498319 36FLindsay RitterWashington DC40400:16:4251500:04:5653001:05:0144700:02:0340200:30:1300:02:0002:00:53 
499473 25MJason FarberArlington VA40500:16:4331800:03:2446300:59:4033100:01:3855100:40:36 02:01:59 
500242 36MKerry OldfieldLeesburg VA56100:23:3040200:03:5249701:01:4424800:01:2442800:31:39 02:02:07 
501407 35FKimberly HerbertSpringfield VA47800:18:0046300:04:1748201:00:5250200:02:2851700:36:36 02:02:10 
502663NF29FKate HubbardWashington DC38900:16:2653400:05:0950501:02:3853300:02:5149700:35:10 02:02:12 
503434 53FLynne SwartzCentreville VA58200:29:1049200:04:3942600:57:1054000:03:0333300:28:28 02:02:27 
504498 32FElizabeth Nicoletti SheehWashington DC49800:18:3754600:05:2149801:01:4512600:01:0851200:36:04 02:02:53 
505577NF48FSara PooreFredericksburg VA50700:18:5749300:04:3950801:02:5652700:02:4748200:33:45 02:03:02 
506651NF40FKirsten MunzFairfax VA41200:16:5052800:05:0554701:07:4620900:01:1845300:32:34 02:03:31 
507271 53FSusan LeavittWashington DC47500:17:5851600:04:5649901:01:4939600:01:5152400:37:00 02:03:32 
508437 30FCesse IpWashington DC51300:19:0854100:05:1748501:01:0053700:02:5747400:33:2500:02:0002:03:44 
509325 28MRoberto MirandaArlington VA44600:17:3457800:07:0852401:04:2244500:02:0346300:32:56 02:04:01 
510161 67MSkip LambertChesapeake VA          00:02:0002:04:13 
511337 53MEric JohnsonWashington DC38700:16:2441200:03:5642900:57:2752400:02:4556700:44:06 02:04:35 
512680NF44FDawn ReposkyCharlotte Hall MD55800:23:0643300:04:0347801:00:3048600:02:1949400:34:47 02:04:43 
513695NM39MMathais RiveraWoodbridge VA36700:16:0849800:04:4150001:01:5353900:03:0154200:39:04 02:04:45 
514650NF38FMiklane ChangFairfax VA21400:14:0053200:05:0955501:09:2552100:02:4347900:33:33 02:04:47 
515635A50FKris PetersenSilver Spring MD34600:15:5321100:02:5243300:57:3932100:01:3757300:47:11 02:05:10 
516665NF34FKatherine GajewskiPhiladelphia PA38300:16:2141800:03:5854001:06:1935000:01:4152300:36:58 02:05:15 
51738NF36FNancy WallaceWashington DC43600:17:2738500:03:4755401:09:0510000:01:0448400:33:55 02:05:16 
518626MC45MTyson TolesSchenectady NY43700:17:2738200:03:4639700:55:4756300:03:5156800:44:28 02:05:17 
519470 26FHaley DeschampsAnnapolis MD40700:16:4654500:05:2053901:06:1148200:02:1849500:34:59 02:05:32 
52048 60FJudith FitzpatrickTakoma Park MD46800:17:5447500:04:2453501:05:1752300:02:4450200:35:21 02:05:37 
52152 52MAndrew SchubinAlexandria VA52900:20:1356100:06:0755801:10:0050800:02:3125400:26:52 02:05:41 
522679NF40FChristina CaesarCatonsville MD28400:14:5256300:06:1356301:11:0116200:01:1444800:32:26 02:05:44 
52331 40MNeil GoradiaBethesda MD42900:17:2043800:04:0647100:59:5856800:04:1154800:40:15 02:05:47 
524675NF32FNicole McLaughlinFort Monroe VA55500:22:1842100:03:5951001:03:1251500:02:4048000:33:41 02:05:47 
525687NM38MPhilip SokolowskiSterling VA53100:20:2958000:09:3449001:01:1956900:04:4340100:30:11 02:06:15 
526454 62FLeanne LayneSpringfield VA49200:18:2840400:03:5350601:02:4548800:02:2154000:38:50 02:06:15 
PlaceBibCoAgSNAMEcity/stateRankSWIMRankT1RankBikeRankT2RankRUNPENALTYTIMEDQ
527581 55FEileen McConkieColonial Beach VA46600:17:5252300:05:0152201:04:0656000:03:4550800:35:43 02:06:25 
52821 36FSamantha GallagherAlexandria VA54400:21:3337300:03:4250301:02:0447800:02:1552100:36:57 02:06:30 
529658NF28FKatherine StallingsFalls Church VA51100:19:0330800:03:2055001:08:2331300:01:3649100:34:24 02:06:44 
530653NF50FKatarina AuerArlington VA50300:18:4647700:04:2651701:03:3855000:03:1152000:36:55 02:06:54 
531691NM32MRobert Kilpatrick IIManassas VA55000:22:0450000:04:4353701:06:0456500:03:5841000:30:42 02:07:29 
532673NF24FElissa GathmanFairfax VA43000:17:2052900:05:0653801:06:0942900:01:5952700:37:06 02:07:38 
533110 32FSheila DicostanzaArlington VA35400:15:5846500:04:1754601:07:4055900:03:4351300:36:15 02:07:51 
534662NF53FWestley Du PontCharlottesville VA47000:17:5441500:03:5749201:01:2747000:02:1456100:42:25 02:07:55 
53580 39MKen KuselArlington VA51200:19:0650200:04:4351601:03:3741800:01:5653800:38:37 02:07:56 
536367 35FAngela HennessyGreenbelt MD           02:07:57 
537263 52FPatricia StiegmanLusby MD53500:20:4351200:04:5351801:03:4933200:01:3952800:37:09 02:08:11 
538176 37MGlenn BallardWashington DC58400:31:3156400:06:1633000:53:2757100:04:5544400:32:17 02:08:24 
539453 63FPat BloodMcLean VA48100:18:0351100:04:5053601:05:4150600:02:3153200:37:33 02:08:36 
540247 29FLindsay MulcahyArlington VA49100:18:2656000:06:0656801:12:5430700:01:3439100:30:00 02:08:58 
541674NF31FChristina JenningsFredericksburg VA51400:19:1551800:04:5853201:05:0353500:02:5352200:36:57 02:09:05 
542309 55MMichael HarrisFairfax VA44200:17:2955600:06:0249301:01:3553800:02:5955500:41:06 02:09:10 
543328 33FVanessa TesorieroWashington DC55400:22:1756200:06:0954201:06:2841300:01:5545200:32:32 02:09:19 
544350 22MJoe SullivanLaurel MD10800:12:4547100:04:2257101:14:2532500:01:3851900:36:43 02:09:50 
545405 39MVladislav GavriletsFairfax VA43500:17:2643400:04:0454801:07:5555300:03:1353100:37:32 02:10:07 
546710NM49MChris MunzFairfax VA40200:16:4256600:06:2154901:08:0154800:03:0851000:35:58 02:10:08 
547293 32FCynthia LeonCharlottesville VA53900:21:1551300:04:5351301:03:1518900:01:1654700:40:02 02:10:39 
548292 31FNicole ShepardStaunton VA34400:15:4958100:10:2151201:03:1334500:01:4054400:39:37 02:10:39 
54963 34FRachel CramerAlexandria VA53200:20:3033900:03:3253101:05:0122800:01:2154900:40:18 02:10:41 
550539 29FJulia SullivanHerndon VA57000:24:4725400:03:0556901:12:5431200:01:3635300:28:49 02:11:09 
551283NF47FMartha HenebryWashington DC58000:28:0255500:06:0051101:03:1226900:01:2845400:32:34 02:11:15 
552647NF29FLaura JohnsWashington DC55700:22:5742500:04:0054101:06:2225100:01:2451800:36:38 02:11:19 
553471 28FJessica KirbyOdenton MD55100:22:0639000:03:4955201:08:4346000:02:0650000:35:14 02:11:56 
55479 38FSusan KuselArlington VA55300:22:1449100:04:3950901:03:0217600:01:1455400:40:50 02:11:56 
555711NM56MTim GindlingCollege Park MD50000:18:3956800:06:3250401:02:2455700:03:3455600:41:24 02:12:31 
556659NF28FJackie AndersonAlexandria VA47300:17:5749600:04:4156401:11:496100:00:5952900:37:25 02:12:49 
557517 46FLisa SylviaFredericksburg VA46200:17:4648500:04:3257201:14:5746500:02:1047800:33:33 02:12:57 
PlaceBibCoAgSNAMEcity/stateRankSWIMRankT1RankBikeRankT2RankRUNPENALTYTIMEDQ
558154 60FAnne WoodFairfax VA56700:24:2239300:03:5052601:04:4336600:01:4553900:38:49 02:13:27 
559620MC48MEric HoyWashington DC56200:23:3657900:07:4849601:01:4041900:01:5654300:39:11 02:14:10 
560261 46MAdrian ShawKing George VA29200:14:5754300:05:1852701:04:4455200:03:1357100:46:14 02:14:25 
561137 47FSuji BrownReston VA57600:25:3650300:04:4348401:00:5932900:01:3855900:41:48 02:14:42 
56267 58MWilliam CarlinFredericksburg VA53400:20:4048600:04:3352801:04:4956700:04:0955200:40:42 02:14:50 
563638NF49FSusan SigmonStafford VA44500:17:3351700:04:5856501:12:1047700:02:1554100:38:57 02:15:50 
564669NF45FJulie NaffAnnandale VA55900:23:1057700:07:0548001:00:4456400:03:5655700:41:27 02:16:21 
565667NF29FKate CobbsSterling VA45000:17:3652600:05:0456001:10:3651200:02:3755300:40:42 02:16:34 
566392 39MErnest DellingerWarrenton VA57300:25:1155700:06:0454301:06:4752800:02:4851100:36:03 02:16:50 
567109 32FBecca ShaneWashington DC56900:24:3452700:05:0456101:10:4633700:01:3949600:35:01 02:17:03 
56898 41FMelanie KoelschManassas VA58300:31:2232100:03:2652301:04:0734400:01:4053400:37:43 02:18:17 
569668NF44FKathleen SweeneyAlexandria VA49500:18:3054700:05:3455101:08:4256200:03:4956000:41:59 02:18:33 
570639NF35FEugenia GregorioArlington VA47200:17:5557500:06:5854501:07:1255500:03:2956600:43:01 02:18:33 
571423 44MAdam KannapellCharlottesville VA35300:15:5857400:06:5757601:20:4340400:01:5350600:35:32 02:21:01 
572636A31FCatharine MyungWashington DC42400:17:0853000:05:0645100:58:4553100:02:5157400:57:26 02:21:14 
573617MC53MGarry StiegmanLusby MD58100:28:1854800:05:3544500:58:2544300:02:0357200:46:58 02:21:17 
574378 39FLesley EicherHarrisonburg VA27700:14:4756500:06:1957001:14:0657200:05:0156400:42:37 02:22:49 
57559 49FJennifer A McCannWashington DC57400:25:1151000:04:4955901:10:1154300:03:0454500:39:39 02:22:52 
576338 43FJennifer SchellerSilver Spring MD57900:26:1649400:04:3957301:15:1242500:01:5849800:35:11 02:23:14 
577602C36MKevin TakeguchiArlington VA37600:16:1752500:05:0431500:53:0656100:03:4657501:05:23 02:23:34 
578115 43FErin LintonPotomac MD           02:24:15 
579683NF27FDesiree BoucherArlington VA57800:26:1341400:03:5755701:09:5950900:02:3355800:41:41 02:24:22 
580313 24FSarah TruittWashington DC56800:24:3330000:03:1857401:16:5924700:01:2454600:39:40 02:25:52 
581146 35FShabnaum AmjadAlexandria VA54700:21:5354900:05:3557501:20:1545600:02:0553600:38:20 02:28:07 
582381 46FRebecca KuperGermantown MD57500:25:2648300:04:3255301:08:4357000:04:4456900:45:22 02:28:45 
58368 36MMichael JacksonWashington DC54300:21:3156700:06:3057701:24:4257400:05:3141700:30:53 02:29:05 
58469 37FKatie JacksonWashington DC57100:25:0057300:06:5757801:24:4757300:05:2941800:30:54 02:33:05 
585286 33FLeigh MaysAlexandria VA57200:25:0457100:06:3557901:25:5746100:02:0756200:42:31 02:42:12 
586627A34FAngela AdelmanBaltimore MD56000:23:1753500:05:1058001:27:4351900:02:4257000:46:07 02:44:57 

** Results are for the private use of participants and are the Intellectual Property of Set Up Events. Unauthorized use of these results is prohibited.